createdAt,value
2022-10-31T00:01:25.088Z,13.41
2022-10-31T00:03:51.650Z,13.90
2022-10-31T00:06:20.629Z,13.82
2022-10-31T00:08:48.485Z,13.70
2022-10-31T00:11:15.018Z,13.61
2022-10-31T00:13:41.439Z,13.69
2022-10-31T00:16:15.092Z,13.63
2022-10-31T00:18:41.517Z,13.65
2022-10-31T00:21:08.066Z,13.55
2022-10-31T00:23:34.424Z,13.31
2022-10-31T00:26:02.978Z,13.39
2022-10-31T00:28:31.396Z,13.46
2022-10-31T00:31:02.050Z,13.37
2022-10-31T00:33:29.275Z,13.14
2022-10-31T00:35:56.539Z,13.19
2022-10-31T00:38:23.489Z,12.94
2022-10-31T00:40:49.880Z,12.86
2022-10-31T00:43:16.259Z,12.62
2022-10-31T00:45:43.618Z,12.53
2022-10-31T00:48:10.546Z,12.69
2022-10-31T00:50:37.239Z,12.53
2022-10-31T00:53:03.688Z,12.59
2022-10-31T00:55:30.367Z,12.78
2022-10-31T00:57:57.243Z,12.93
2022-10-31T01:00:24.065Z,12.90
2022-10-31T01:02:50.635Z,12.73
2022-10-31T01:05:17.269Z,12.80
2022-10-31T01:07:43.861Z,12.57
2022-10-31T01:10:11.942Z,12.46
2022-10-31T01:12:39.827Z,12.45
2022-10-31T01:15:07.137Z,12.42
2022-10-31T01:17:33.692Z,12.49
2022-10-31T01:20:00.101Z,12.37
2022-10-31T01:22:26.513Z,12.47
2022-10-31T01:24:53.300Z,12.45
2022-10-31T01:27:19.802Z,12.45
2022-10-31T01:29:46.361Z,12.50
2022-10-31T01:32:12.957Z,12.49
2022-10-31T01:34:39.362Z,12.20
2022-10-31T01:37:05.819Z,12.12
2022-10-31T01:39:32.239Z,12.00
2022-10-31T01:41:58.937Z,12.11
2022-10-31T01:44:25.894Z,12.23
2022-10-31T01:46:52.716Z,12.30
2022-10-31T01:49:30.498Z,12.33
2022-10-31T01:52:12.945Z,12.26
2022-10-31T01:54:46.818Z,12.18
2022-10-31T01:57:15.515Z,12.31
2022-10-31T01:59:48.293Z,12.18
2022-10-31T02:02:17.902Z,11.68
2022-10-31T02:04:44.560Z,11.88
2022-10-31T02:08:01.654Z,11.92
2022-10-31T02:10:28.953Z,11.84
2022-10-31T02:12:59.040Z,11.86
2022-10-31T02:15:25.913Z,11.86
2022-10-31T02:17:52.830Z,11.85
2022-10-31T02:20:25.323Z,11.90
2022-10-31T02:23:29.089Z,12.18
2022-10-31T02:26:21.638Z,11.90
2022-10-31T02:29:02.273Z,11.90
2022-10-31T02:31:40.038Z,11.84
2022-10-31T02:34:28.160Z,11.92
2022-10-31T02:36:59.920Z,11.73
2022-10-31T02:39:41.997Z,11.50
2022-10-31T02:42:15.792Z,11.65
2022-10-31T02:44:52.072Z,11.57
2022-10-31T02:47:28.951Z,11.53
2022-10-31T02:50:02.035Z,11.35
2022-10-31T02:52:30.421Z,11.42
2022-10-31T02:54:56.903Z,11.53
2022-10-31T02:57:34.573Z,11.49
2022-10-31T03:00:04.483Z,11.41
2022-10-31T03:02:42.925Z,11.25
2022-10-31T03:05:24.229Z,11.14
2022-10-31T03:08:08.744Z,11.40
2022-10-31T03:10:48.465Z,11.41
2022-10-31T03:13:30.155Z,11.43
2022-10-31T03:16:08.439Z,11.50
2022-10-31T03:18:40.698Z,11.24
2022-10-31T03:21:14.878Z,11.08
2022-10-31T03:23:44.137Z,10.91
2022-10-31T03:26:13.461Z,10.92
2022-10-31T03:29:08.291Z,11.14
2022-10-31T03:31:56.911Z,10.84
2022-10-31T03:34:23.333Z,10.93
2022-10-31T03:36:54.244Z,10.78
2022-10-31T03:39:23.192Z,10.86
2022-10-31T03:41:55.794Z,10.89
2022-10-31T03:44:23.820Z,10.69
2022-10-31T03:46:50.765Z,10.55
2022-10-31T03:49:18.036Z,10.57
2022-10-31T03:51:48.163Z,10.42
2022-10-31T03:54:41.525Z,10.59
2022-10-31T03:57:30.736Z,10.61
2022-10-31T04:00:08.127Z,10.19
2022-10-31T04:02:39.021Z,10.18
2022-10-31T04:05:06.760Z,10.25
2022-10-31T04:07:39.942Z,10.16
2022-10-31T04:10:10.970Z,10.34
2022-10-31T04:12:40.496Z,10.09
2022-10-31T04:15:08.972Z,10.19
2022-10-31T04:17:39.557Z,10.36
2022-10-31T04:20:06.890Z,10.25
2022-10-31T04:22:33.333Z,10.20
2022-10-31T04:24:59.721Z,10.20
2022-10-31T04:27:26.124Z,9.88
2022-10-31T04:29:52.505Z,10.11
2022-10-31T04:32:18.917Z,10.15
2022-10-31T04:34:45.331Z,10.13
2022-10-31T04:37:11.746Z,10.10
2022-10-31T04:39:38.116Z,10.12
2022-10-31T04:42:04.689Z,10.00
2022-10-31T04:44:31.073Z,10.13
2022-10-31T04:46:57.501Z,10.30
2022-10-31T04:49:23.894Z,10.11
2022-10-31T04:51:50.315Z,9.96
2022-10-31T04:54:16.687Z,9.98
2022-10-31T04:56:43.041Z,9.98
2022-10-31T04:59:09.425Z,9.91
2022-10-31T05:01:37.123Z,10.06
2022-10-31T05:04:03.818Z,9.97
2022-10-31T05:06:30.283Z,9.88
2022-10-31T05:08:56.667Z,9.72
2022-10-31T05:11:23.031Z,9.85
2022-10-31T05:13:49.427Z,9.92
2022-10-31T05:16:15.794Z,9.91
2022-10-31T05:18:42.194Z,9.86
2022-10-31T05:21:08.602Z,9.95
2022-10-31T05:23:35.103Z,10.06
2022-10-31T05:26:01.517Z,10.14
2022-10-31T05:28:27.908Z,9.79
2022-10-31T05:30:54.268Z,9.72
2022-10-31T05:33:20.767Z,9.37
2022-10-31T05:35:47.155Z,9.52
2022-10-31T05:38:13.543Z,9.64
2022-10-31T05:40:39.996Z,9.71
2022-10-31T05:43:06.493Z,9.48
2022-10-31T05:45:32.969Z,9.74
2022-10-31T05:48:01.928Z,9.69
2022-10-31T05:50:31.323Z,9.84
2022-10-31T05:53:05.557Z,9.74
2022-10-31T05:55:33.351Z,9.93
2022-10-31T05:58:00.141Z,9.80
2022-10-31T06:00:27.569Z,9.63
2022-10-31T06:03:02.069Z,9.84
2022-10-31T06:05:30.010Z,9.77
2022-10-31T06:07:56.975Z,9.82
2022-10-31T06:10:24.201Z,9.70
2022-10-31T06:12:50.738Z,9.71
2022-10-31T06:15:23.466Z,9.65
2022-10-31T06:18:06.854Z,9.46
2022-10-31T06:20:34.151Z,9.50
2022-10-31T06:23:01.491Z,9.41
2022-10-31T06:25:28.819Z,9.33
2022-10-31T06:27:55.766Z,9.49
2022-10-31T06:30:22.222Z,9.54
2022-10-31T06:32:48.687Z,9.76
2022-10-31T06:35:15.248Z,9.78
2022-10-31T06:37:43.387Z,9.63
2022-10-31T06:40:12.377Z,9.69
2022-10-31T06:42:39.062Z,9.35
2022-10-31T06:45:05.824Z,9.44
2022-10-31T06:47:32.476Z,9.74
2022-10-31T06:49:59.811Z,9.55
2022-10-31T06:52:26.224Z,9.86
2022-10-31T06:54:53.013Z,9.99
2022-10-31T06:57:19.482Z,10.20
2022-10-31T06:59:46.111Z,10.23
2022-10-31T07:02:13.103Z,10.08
2022-10-31T07:04:39.617Z,10.21
2022-10-31T07:07:06.045Z,10.31
2022-10-31T07:09:32.749Z,10.19
2022-10-31T07:11:59.238Z,10.24
2022-10-31T07:14:25.621Z,10.27
2022-10-31T07:16:52.565Z,10.36
2022-10-31T07:19:19.202Z,10.49
2022-10-31T07:21:45.639Z,10.54
2022-10-31T07:24:12.047Z,10.81
2022-10-31T07:26:38.416Z,11.16
2022-10-31T07:29:04.908Z,11.48
2022-10-31T07:31:31.343Z,11.56
2022-10-31T07:33:57.996Z,12.38
2022-10-31T07:36:24.359Z,11.83
2022-10-31T07:38:50.873Z,11.83
2022-10-31T07:41:17.277Z,13.16
2022-10-31T07:43:43.709Z,13.05
2022-10-31T07:46:10.300Z,13.94
2022-10-31T07:48:36.708Z,13.57
2022-10-31T07:51:03.202Z,14.12
2022-10-31T07:53:29.586Z,14.35
2022-10-31T07:55:56.053Z,13.52
2022-10-31T07:58:22.429Z,14.19
2022-10-31T08:00:49.019Z,14.31
2022-10-31T08:03:18.137Z,14.06
2022-10-31T08:05:47.612Z,14.15
2022-10-31T08:08:15.055Z,13.79
2022-10-31T08:10:41.656Z,13.82
2022-10-31T08:13:13.526Z,14.70
2022-10-31T08:15:42.582Z,15.56
2022-10-31T08:18:14.446Z,16.66
2022-10-31T08:20:42.089Z,15.57
2022-10-31T08:23:10.800Z,16.35
2022-10-31T08:25:38.876Z,16.68
2022-10-31T08:28:07.052Z,17.02
2022-10-31T08:30:35.754Z,16.90
2022-10-31T08:33:12.459Z,17.24
2022-10-31T08:35:39.257Z,18.11
2022-10-31T08:38:06.031Z,17.83
2022-10-31T08:40:33.714Z,17.91
2022-10-31T08:43:05.362Z,19.04
2022-10-31T08:45:33.576Z,18.30
2022-10-31T08:48:20.265Z,17.55
2022-10-31T08:50:46.948Z,17.45
2022-10-31T08:53:16.241Z,17.07
2022-10-31T08:55:43.907Z,17.38
2022-10-31T08:58:13.254Z,17.35
2022-10-31T09:00:39.895Z,15.88
2022-10-31T09:03:13.668Z,16.05
2022-10-31T09:05:40.619Z,16.76
2022-10-31T09:08:13.186Z,16.64
2022-10-31T09:10:42.845Z,16.49
2022-10-31T09:13:15.206Z,16.86
2022-10-31T09:15:44.658Z,16.68
2022-10-31T09:18:12.677Z,16.56
2022-10-31T09:20:40.720Z,16.59
2022-10-31T09:23:12.916Z,16.95
2022-10-31T09:25:40.155Z,17.20
2022-10-31T09:28:08.041Z,18.05
2022-10-31T09:30:36.458Z,18.82
2022-10-31T09:33:06.411Z,19.19
2022-10-31T09:35:33.389Z,20.07
2022-10-31T09:38:02.239Z,19.76
2022-10-31T09:40:35.962Z,20.42
2022-10-31T09:43:20.859Z,20.73
2022-10-31T09:46:05.492Z,19.98
2022-10-31T09:48:37.975Z,19.98
2022-10-31T09:51:09.052Z,19.44
2022-10-31T09:53:49.437Z,21.03
2022-10-31T09:56:20.782Z,20.87
2022-10-31T09:59:01.754Z,20.46
2022-10-31T10:01:34.246Z,21.33
2022-10-31T10:04:13.054Z,21.41
2022-10-31T10:06:47.501Z,20.06
2022-10-31T10:09:14.340Z,20.64
2022-10-31T10:12:04.250Z,21.78
2022-10-31T10:14:59.695Z,22.26
2022-10-31T10:17:48.386Z,23.05
2022-10-31T10:20:26.635Z,22.45
2022-10-31T10:23:09.818Z,23.32
2022-10-31T10:25:40.587Z,22.92
2022-10-31T10:28:24.336Z,22.77
2022-10-31T10:31:08.965Z,21.72
2022-10-31T10:33:40.364Z,23.06
2022-10-31T10:36:14.381Z,23.03
2022-10-31T10:38:59.377Z,23.10
2022-10-31T10:41:34.276Z,23.69
2022-10-31T10:44:01.125Z,23.99
2022-10-31T10:47:02.409Z,23.16
2022-10-31T10:49:52.694Z,23.08
2022-10-31T10:55:41.537Z,21.39
2022-10-31T10:58:09.495Z,22.12
2022-10-31T11:00:41.370Z,21.96
2022-10-31T11:03:08.923Z,21.49
2022-10-31T11:06:02.447Z,21.47
2022-10-31T11:08:35.811Z,21.34
2022-10-31T11:11:10.165Z,21.15
2022-10-31T11:13:37.698Z,21.02
2022-10-31T11:16:10.914Z,21.17
2022-10-31T11:18:48.074Z,21.92
2022-10-31T11:21:26.961Z,21.34
2022-10-31T11:24:11.513Z,21.76
2022-10-31T11:26:39.485Z,21.27
2022-10-31T11:29:13.472Z,21.35
2022-10-31T11:31:40.763Z,20.87
2022-10-31T11:34:16.929Z,21.80
2022-10-31T11:36:45.313Z,22.59
2022-10-31T11:39:20.297Z,22.31
2022-10-31T11:41:48.164Z,22.75
2022-10-31T11:44:19.565Z,22.89
2022-10-31T11:46:49.872Z,22.57
2022-10-31T11:49:21.748Z,22.14
2022-10-31T11:51:51.928Z,21.64
2022-10-31T11:54:30.009Z,21.93
2022-10-31T11:56:56.764Z,21.16
2022-10-31T11:59:32.243Z,22.02
2022-10-31T12:02:01.164Z,21.34
2022-10-31T12:04:42.946Z,22.09
2022-10-31T12:07:09.608Z,21.19
2022-10-31T12:09:37.859Z,21.10
2022-10-31T12:12:41.349Z,21.80
2022-10-31T12:15:26.313Z,21.44
2022-10-31T12:18:09.805Z,21.95
2022-10-31T12:21:05.938Z,20.90
2022-10-31T12:24:00.037Z,21.38
2022-10-31T12:26:51.749Z,20.93
2022-10-31T12:29:30.567Z,20.84
2022-10-31T12:32:18.145Z,20.55
2022-10-31T12:35:23.174Z,20.30
2022-10-31T12:38:05.012Z,20.22
2022-10-31T12:40:43.424Z,20.34
2022-10-31T12:43:22.054Z,20.70
2022-10-31T12:46:02.142Z,20.26
2022-10-31T12:48:46.791Z,20.50
2022-10-31T12:51:40.036Z,20.25
2022-10-31T12:54:16.784Z,19.83
2022-10-31T12:57:14.138Z,19.96
2022-10-31T12:59:49.145Z,19.79
2022-10-31T13:02:28.339Z,19.83
2022-10-31T13:04:59.177Z,19.88
2022-10-31T13:07:33.664Z,19.90
2022-10-31T13:10:33.355Z,19.57
2022-10-31T13:13:09.289Z,19.92
2022-10-31T13:15:47.512Z,19.03
2022-10-31T13:18:38.352Z,19.18
2022-10-31T13:21:12.723Z,19.31
2022-10-31T13:23:56.312Z,19.16
2022-10-31T13:26:47.166Z,19.12
2022-10-31T13:29:20.619Z,19.10
2022-10-31T13:31:47.151Z,19.12
2022-10-31T13:34:54.133Z,19.11
2022-10-31T13:37:54.643Z,19.04
2022-10-31T13:40:45.774Z,18.81
2022-10-31T13:43:49.185Z,18.78
2022-10-31T13:46:35.405Z,18.43
2022-10-31T13:49:02.174Z,18.52
2022-10-31T13:51:36.116Z,18.56
2022-10-31T13:54:20.767Z,18.59
2022-10-31T13:56:53.842Z,18.60
2022-10-31T13:59:23.643Z,18.60
2022-10-31T14:02:00.693Z,18.51
2022-10-31T14:04:47.953Z,18.38
2022-10-31T14:07:18.103Z,18.31
2022-10-31T14:10:05.921Z,18.36
2022-10-31T14:12:36.295Z,18.54
2022-10-31T14:15:15.135Z,18.17
2022-10-31T14:17:52.458Z,18.17
2022-10-31T14:20:18.803Z,18.10
2022-10-31T14:22:45.532Z,17.94
2022-10-31T14:25:27.931Z,17.85
2022-10-31T14:27:54.717Z,17.87
2022-10-31T14:30:25.257Z,17.72
2022-10-31T14:32:55.905Z,17.81
2022-10-31T14:35:27.454Z,17.69
2022-10-31T14:38:19.172Z,17.68
2022-10-31T14:40:45.542Z,17.68
2022-10-31T14:43:21.272Z,17.54
2022-10-31T14:46:04.026Z,17.68
2022-10-31T14:48:48.422Z,17.56
2022-10-31T14:51:19.600Z,17.35
2022-10-31T14:53:57.070Z,17.40
2022-10-31T14:56:38.403Z,17.41
2022-10-31T14:59:13.097Z,17.47
2022-10-31T15:01:40.975Z,17.44
2022-10-31T15:04:25.220Z,17.56
2022-10-31T15:07:24.827Z,17.35
2022-10-31T15:10:03.459Z,17.12
2022-10-31T15:12:35.415Z,17.23
2022-10-31T15:15:22.980Z,17.11
2022-10-31T15:17:53.797Z,17.19
2022-10-31T15:20:25.851Z,17.10
2022-10-31T15:22:52.993Z,16.94
2022-10-31T15:25:21.482Z,16.84
2022-10-31T15:27:52.671Z,16.71
2022-10-31T15:30:22.178Z,16.79
2022-10-31T15:32:57.536Z,16.66
2022-10-31T15:35:30.333Z,16.50
2022-10-31T15:37:59.330Z,16.43
2022-10-31T15:40:27.642Z,16.31
2022-10-31T15:43:05.935Z,16.27
2022-10-31T15:45:32.912Z,16.31
2022-10-31T15:48:17.397Z,16.30
2022-10-31T15:50:54.575Z,16.13
2022-10-31T15:53:44.006Z,16.16
2022-10-31T15:56:14.116Z,16.19
2022-10-31T15:58:45.160Z,16.04
2022-10-31T16:01:33.255Z,15.75
2022-10-31T16:04:08.638Z,15.75
2022-10-31T16:06:35.713Z,15.95
2022-10-31T16:09:03.355Z,15.99
2022-10-31T16:11:34.897Z,15.94
2022-10-31T16:14:06.493Z,15.77
2022-10-31T16:16:36.267Z,15.88
2022-10-31T16:19:06.616Z,15.97
2022-10-31T16:21:37.354Z,15.82
2022-10-31T16:24:31.748Z,15.78
2022-10-31T16:27:05.399Z,15.80
2022-10-31T16:29:34.689Z,15.89
2022-10-31T16:32:01.608Z,15.75
2022-10-31T16:34:28.027Z,15.87
2022-10-31T16:36:54.617Z,15.81
2022-10-31T16:39:21.414Z,15.89
2022-10-31T16:41:51.472Z,15.88
2022-10-31T16:44:25.874Z,15.83
2022-10-31T16:47:07.400Z,15.81
2022-10-31T16:49:34.084Z,15.74
2022-10-31T16:52:00.684Z,15.74
2022-10-31T16:54:29.774Z,15.66
2022-10-31T16:56:56.322Z,15.70
2022-10-31T16:59:22.738Z,15.56
2022-10-31T17:01:50.196Z,15.58
2022-10-31T17:04:16.846Z,15.55
2022-10-31T17:06:43.361Z,15.46
2022-10-31T17:09:10.018Z,15.08
2022-10-31T17:11:37.217Z,15.30
2022-10-31T17:14:05.251Z,15.34
2022-10-31T17:16:31.730Z,15.38
2022-10-31T17:18:59.056Z,15.39
2022-10-31T17:21:27.890Z,15.38
2022-10-31T17:23:54.313Z,15.27
2022-10-31T17:26:21.164Z,15.36
2022-10-31T17:28:47.565Z,15.22
2022-10-31T17:31:22.527Z,15.32
2022-10-31T17:33:49.505Z,15.27
2022-10-31T17:36:16.702Z,15.24
2022-10-31T17:38:43.081Z,15.31
2022-10-31T17:41:11.277Z,15.24
2022-10-31T17:43:38.298Z,15.21
2022-10-31T17:46:05.195Z,15.27
2022-10-31T17:48:33.865Z,15.32
2022-10-31T17:51:05.154Z,15.21
2022-10-31T17:53:33.402Z,15.14
2022-10-31T17:56:05.257Z,15.10
2022-10-31T17:58:32.300Z,15.09
2022-10-31T18:00:59.231Z,15.00
2022-10-31T18:03:26.458Z,15.03
2022-10-31T18:05:57.856Z,14.92
2022-10-31T18:08:28.946Z,14.86
2022-10-31T18:10:56.273Z,14.99
2022-10-31T18:13:24.437Z,14.94
2022-10-31T18:15:53.527Z,15.01
2022-10-31T18:18:20.689Z,14.95
2022-10-31T18:20:47.328Z,14.96
2022-10-31T18:23:14.229Z,14.95
2022-10-31T18:25:43.058Z,14.84
2022-10-31T18:28:10.078Z,14.83
2022-10-31T18:30:40.989Z,14.90
2022-10-31T18:33:08.604Z,14.71
2022-10-31T18:35:39.563Z,14.72
2022-10-31T18:38:06.996Z,14.73
2022-10-31T18:40:35.597Z,14.73
2022-10-31T18:43:02.920Z,14.37
2022-10-31T18:45:41.650Z,14.58
2022-10-31T18:48:14.335Z,14.67
2022-10-31T18:50:41.549Z,14.61
2022-10-31T18:53:08.018Z,14.63
2022-10-31T18:55:38.682Z,14.51
2022-10-31T18:58:05.026Z,14.46
2022-10-31T19:00:31.608Z,14.35
2022-10-31T19:02:58.174Z,14.44
2022-10-31T19:05:24.695Z,14.43
2022-10-31T19:07:51.099Z,14.45
2022-10-31T19:10:17.581Z,14.42
2022-10-31T19:12:43.959Z,14.36
2022-10-31T19:15:10.671Z,14.45
2022-10-31T19:17:37.095Z,14.40
2022-10-31T19:20:03.805Z,14.46
2022-10-31T19:22:32.972Z,14.33
2022-10-31T19:24:59.361Z,14.19
2022-10-31T19:27:28.037Z,14.18
2022-10-31T19:29:54.478Z,14.09
2022-10-31T19:32:20.930Z,14.03
2022-10-31T19:34:47.418Z,14.08
2022-10-31T19:37:13.845Z,13.97
2022-10-31T19:39:44.125Z,13.84
2022-10-31T19:42:11.062Z,13.90
2022-10-31T19:44:37.638Z,13.92
2022-10-31T19:47:04.321Z,13.93
2022-10-31T19:49:30.880Z,13.96
2022-10-31T19:51:57.468Z,13.96
2022-10-31T19:54:23.995Z,13.90
2022-10-31T19:56:50.392Z,13.79
2022-10-31T19:59:16.811Z,13.84
2022-10-31T20:01:43.334Z,13.82
2022-10-31T20:04:09.854Z,13.65
2022-10-31T20:06:38.971Z,13.59
2022-10-31T20:09:08.216Z,13.61
2022-10-31T20:11:36.873Z,13.74
2022-10-31T20:14:04.314Z,13.65
2022-10-31T20:16:30.808Z,13.70
2022-10-31T20:18:59.474Z,13.73
2022-10-31T20:21:29.594Z,13.78
2022-10-31T20:23:58.043Z,13.78
2022-10-31T20:26:24.888Z,13.82
2022-10-31T20:28:51.815Z,13.89
2022-10-31T20:31:23.691Z,13.87
2022-10-31T20:33:51.054Z,13.88
2022-10-31T20:36:19.627Z,13.74
2022-10-31T20:38:46.133Z,13.60
2022-10-31T20:41:13.498Z,13.66
2022-10-31T20:43:39.942Z,13.53
2022-10-31T20:46:16.303Z,13.63
2022-10-31T20:48:42.846Z,13.47
2022-10-31T20:51:18.613Z,13.57
2022-10-31T20:53:45.584Z,13.63
2022-10-31T20:56:14.197Z,13.56
2022-10-31T20:58:41.764Z,13.69
2022-10-31T21:01:12.433Z,13.57
2022-10-31T21:03:39.007Z,13.56
2022-10-31T21:06:05.555Z,13.46
2022-10-31T21:08:32.749Z,13.43
2022-10-31T21:11:00.747Z,13.43
2022-10-31T21:13:31.890Z,13.51
2022-10-31T21:16:01.279Z,13.40
2022-10-31T21:18:27.720Z,13.49
2022-10-31T21:20:54.263Z,13.49
2022-10-31T21:23:20.773Z,13.39
2022-10-31T21:25:47.197Z,13.52
2022-10-31T21:28:14.228Z,13.35
2022-10-31T21:30:47.031Z,13.22
2022-10-31T21:33:14.165Z,13.14
2022-10-31T21:35:40.780Z,13.04
2022-10-31T21:38:07.163Z,13.13
2022-10-31T21:40:33.753Z,13.01
2022-10-31T21:43:00.439Z,13.05
2022-10-31T21:45:27.008Z,13.11
2022-10-31T21:47:53.519Z,13.10
2022-10-31T21:50:19.950Z,13.03
2022-10-31T21:52:46.401Z,13.19
2022-10-31T21:55:12.786Z,13.24
2022-10-31T21:57:39.268Z,13.11
2022-10-31T22:00:08.870Z,13.21
2022-10-31T22:02:36.462Z,13.22
2022-10-31T22:05:03.622Z,13.28
2022-10-31T22:07:31.789Z,13.22
2022-10-31T22:09:58.225Z,13.15
2022-10-31T22:12:24.596Z,13.13
2022-10-31T22:14:51.042Z,13.18
2022-10-31T22:17:17.457Z,13.00
2022-10-31T22:19:43.811Z,12.98
2022-10-31T22:22:12.753Z,13.16
2022-10-31T22:24:39.145Z,13.03
2022-10-31T22:27:05.546Z,13.03
2022-10-31T22:29:31.925Z,13.10
2022-10-31T22:31:59.614Z,13.00
2022-10-31T22:34:27.956Z,12.94
2022-10-31T22:36:54.671Z,12.85
2022-10-31T22:39:21.054Z,12.71
2022-10-31T22:41:47.490Z,12.73
2022-10-31T22:44:13.924Z,12.76
2022-10-31T22:46:40.339Z,12.66
2022-10-31T22:49:10.740Z,12.64
2022-10-31T22:51:39.438Z,12.57
2022-10-31T22:54:10.066Z,12.31
2022-10-31T22:56:36.663Z,12.49
2022-10-31T22:59:03.289Z,12.31
2022-10-31T23:01:32.359Z,12.24
2022-10-31T23:03:59.888Z,12.15
2022-10-31T23:06:30.234Z,12.09
2022-10-31T23:08:57.512Z,12.08
2022-10-31T23:11:26.670Z,12.01
2022-10-31T23:14:14.392Z,12.04
2022-10-31T23:16:47.296Z,11.95
2022-10-31T23:19:19.376Z,11.85
2022-10-31T23:22:00.930Z,11.93
2022-10-31T23:24:39.553Z,11.85
2022-10-31T23:27:20.827Z,11.61
2022-10-31T23:29:52.633Z,11.38
2022-10-31T23:32:27.565Z,11.47
2022-10-31T23:34:56.669Z,11.52
2022-10-31T23:37:25.639Z,11.64
2022-10-31T23:39:52.610Z,11.62
2022-10-31T23:42:19.915Z,11.43
2022-10-31T23:44:46.678Z,11.50
2022-10-31T23:47:13.448Z,11.69
2022-10-31T23:49:39.919Z,11.65
2022-10-31T23:52:06.999Z,11.71
2022-10-31T23:54:34.225Z,11.86
2022-10-31T23:57:00.735Z,11.73
2022-10-31T23:59:27.153Z,11.76
